Harelbeke, Belgium
Current Conditions -  °F | °C
As of 10:30 PM on Wednesday 26 Nov 2014 (Local Time) from LFQQ Reporting Station
Haze Haze  
Wind Chill: 50°   Ceiling: 200
Heat Index: 50°   Visibility: 1.1mi
Dew Point: 50°   Wind: 5mph
Humidity: 100%   Direction: 160°SSE
Pressure: 29.8"   Gusts: NA
Location:  50.85°N, 3.31°E
Report Text: LFQQ 262130Z 16004KT 1800 BR OVC002 10/10 Q1009 TEMPO 0200FG VV///
Loading
Personal Weather Stations






























Interactive Weather Map New forecast layout! Learn more

10-Day Weather Forecast

Advertisements
Track Severe Weather on mobile